Valparaiso, IN

9:27 PM CDT on September 19, 2014 (GMT -0500)
Valparaiso-N9DPP | Change Station
CLOSE
Current Station
Personal Weather Station
Location: Valparaiso, IN
Elevation: 807 ft
Nearby Weather Stations

Elev 807 ft 41.48 °N, 87.07 °W | Updated 5 minutes ago

Clear
Clear
60.8 °F
Feels Like 60.8 °F
N
0.0
Wind Variable Wind from ESE
Gusts 0.0 mph

Today
High -- | Low -- °F
--% Chance of Precip.
Yesterday
High -- | Low -- °F
Precip. -- in
6:32 AM 6:50 PM
Waning Crescent, 15% visible
Pressure 30.04 in
Visibility 10.0 miles
Clouds Clear
Dew Point 51 °F
Humidity 70%
Rainfall 0.00 in
Snow Depth Not available.
UV 0 out of 12
Pollen 6.20 out of 12
Air Quality Not available.
Flu Activity Not available.
METAR KVPZ 200053Z AUTO 17004KT 10SM CLR 17/08 A3004 RMK AO2 SLP171 T01720083 TSNO

More Conditions Fewer Conditions

Pressure 30.04 in
Visibility 10.0 miles
Clouds Clear
Dew Point 51 °F
Humidity 70%
Rainfall 0.00 in
Snow Depth Not available.
UV 0 out of 12
Pollen 6.20 out of 12
Air Quality Not available.
Flu Activity Not available.
METAR KVPZ 200053Z AUTO 17004KT 10SM CLR 17/08 A3004 RMK AO2 SLP171 T01720083 TSNO

More Conditions Fewer Conditions

10-Day Weather Forecast

Almanac

Astronomy

Sep. 19, 2014 Rise Set
Actual Time 6:32 AM CDT 6:50 PM CDT
Civil Twilight 6:04 AM CDT 7:18 PM CDT
Nautical Twilight 5:32 AM CDT 7:50 PM CDT
Astronomical Twilight 4:59 AM CDT 8:24 PM CDT
Moon 2:15 AM CDT (9/19) 4:21 PM CDT (9/19)
Length of Visible Light 13h 13m
Length of Day
12h 17m
Tomorrow will be 2m 45s shorter.
Waning Crescent, 15% of the Moon is Illuminated
Today
Waning Crescent
Sep 24
New
Oct 1
First Quarter
Oct 8
Full
Oct 15
Last Quarter

Today's Extremes

State Highs State Lows

Community

WunderPhotos

Upload Photos

1,754,762 photos uploaded!

WunderBlogs® & News

Nearby

Snow Depth

Station Depth Elevation
No new snow has been reported.

Earthquake Activity

City Distance Mag. Time & Date
No recent earthquake activity has been reported nearby.
Minimum magnitude displayed is 2.5.

Coastal Water Temperatures

Place Temperature
No Stations Reporting

Nearby Weather Stations